Time;durP1;ratioP1;P1;durP2;ratioP2;P2;SDS_P1;SDS_P2;PMS_P1;PMS_P2;Temp;Humidity;BMP_temperature;BMP_pressure;BME280_temperature;BME280_humidity;BME280_pressure;Samples;Min_cycle;Max_cycle;Signal;HPM_P1;HPM_P2
2021/01/01 00:01:25;;;;;;;10.05;2.60;;;23.60;48.40;;;;;;6397065;22;19924;-74
2021/01/01 00:04:31;;;;;;;7.93;2.67;;;23.60;48.60;;;;;;6395591;22;20530;-72
2021/01/01 00:07:37;;;;;;;11.02;2.88;;;23.50;48.50;;;;;;6397017;22;20012;-71
2021/01/01 00:10:43;;;;;;;8.63;3.38;;;23.50;48.60;;;;;;6394509;22;20001;-67
2021/01/01 00:13:49;;;;;;;10.20;3.05;;;23.50;48.60;;;;;;6396035;22;20005;-73
2021/01/01 00:16:55;;;;;;;9.27;3.22;;;23.50;48.50;;;;;;6396305;22;20006;-75
2021/01/01 00:20:01;;;;;;;8.95;3.20;;;23.50;48.50;;;;;;6396598;22;20043;-67
2021/01/01 00:23:07;;;;;;;13.68;4.40;;;23.50;48.40;;;;;;6396520;22;20010;-72
2021/01/01 00:26:13;;;;;;;11.63;5.43;;;23.50;48.40;;;;;;6394501;22;20014;-73
2021/01/01 00:29:19;;;;;;;13.52;5.85;;;23.40;48.30;;;;;;6396767;22;20009;-72
2021/01/01 00:32:25;;;;;;;10.70;5.05;;;23.40;48.20;;;;;;6396825;22;19998;-72
2021/01/01 00:35:32;;;;;;;10.10;4.28;;;23.40;48.10;;;;;;6394831;22;20008;-75
2021/01/01 00:38:38;;;;;;;9.07;3.97;;;23.40;47.80;;;;;;6395529;22;20103;-72
2021/01/01 00:41:47;;;;;;;8.38;3.90;;;23.40;47.70;;;;;;6396900;22;20093;-74
2021/01/01 00:44:53;;;;;;;8.95;5.22;;;23.30;47.30;;;;;;6395738;22;20010;-73
2021/01/01 00:47:59;;;;;;;9.00;2.83;;;23.30;47.20;;;;;;6394965;22;20069;-73
2021/01/01 00:51:05;;;;;;;9.25;2.70;;;23.30;47.00;;;;;;6396415;22;19993;-72
2021/01/01 00:54:11;;;;;;;9.77;3.30;;;23.30;46.90;;;;;;6396584;22;20076;-73
2021/01/01 00:57:17;;;;;;;10.93;3.75;;;23.20;46.70;;;;;;6395569;22;20425;-70
2021/01/01 01:00:03;;;;;;;;;;;23.20;46.60;;;;;;6395944;22;20362;-74
2021/01/01 01:03:09;;;;;;;9.88;3.03;;;23.20;46.50;;;;;;6396534;22;19921;-73
2021/01/01 01:06:15;;;;;;;7.53;2.65;;;23.20;46.40;;;;;;6396063;22;20163;-69
2021/01/01 01:09:21;;;;;;;10.07;3.15;;;23.20;46.40;;;;;;6395662;22;20069;-76
2021/01/01 01:12:29;;;;;;;11.80;3.38;;;23.20;46.30;;;;;;6396520;22;20009;-70
2021/01/01 01:15:35;;;;;;;12.50;3.33;;;23.20;46.30;;;;;;6396608;22;20108;-68
2021/01/01 01:18:41;;;;;;;8.40;2.53;;;23.20;46.30;;;;;;6395216;22;20457;-72
2021/01/01 01:21:47;;;;;;;9.93;3.28;;;23.20;46.30;;;;;;6395370;22;19997;-70
2021/01/01 01:24:53;;;;;;;7.85;3.03;;;23.20;46.30;;;;;;6396186;22;20017;-68
2021/01/01 01:27:39;;;;;;;;;;;23.20;46.30;;;;;;6396195;22;20014;-74
2021/01/01 01:30:45;;;;;;;8.43;2.75;;;23.10;46.30;;;;;;6395112;22;20367;-72
2021/01/01 01:33:51;;;;;;;12.45;5.28;;;23.10;46.40;;;;;;6396360;22;19998;-73
2021/01/01 01:36:57;;;;;;;7.75;3.40;;;23.10;46.70;;;;;;6396439;22;20077;-71
2021/01/01 01:40:04;;;;;;;11.27;3.83;;;23.10;47.20;;;;;;6395510;22;19994;-70
2021/01/01 01:43:10;;;;;;;12.15;3.35;;;23.10;47.60;;;;;;6396004;22;20013;-75
2021/01/01 01:46:16;;;;;;;12.75;4.97;;;23.10;47.90;;;;;;6396507;22;20078;-67
2021/01/01 01:49:22;;;;;;;10.30;4.78;;;23.10;48.20;;;;;;6394991;22;20016;-74
2021/01/01 01:52:28;;;;;;;9.57;3.20;;;23.10;48.20;;;;;;6394932;22;20370;-73
2021/01/01 01:55:34;;;;;;;10.68;4.05;;;23.10;48.30;;;;;;6396160;22;20005;-68
2021/01/01 01:58:40;;;;;;;9.32;3.33;;;23.00;48.20;;;;;;6396120;22;20006;-76
2021/01/01 02:01:47;;;;;;;8.02;2.78;;;23.00;48.10;;;;;;6394783;22;20370;-71
2021/01/01 02:04:53;;;;;;;7.47;2.97;;;23.00;48.10;;;;;;6367441;22;20345;-75
2021/01/01 02:07:59;;;;;;;8.45;3.10;;;23.00;48.10;;;;;;6396452;22;20022;-69
2021/01/01 02:11:05;;;;;;;5.38;2.33;;;23.00;48.10;;;;;;6395678;22;19998;-70
2021/01/01 02:14:12;;;;;;;5.57;2.63;;;23.00;48.20;;;;;;6395072;22;20031;-71
2021/01/01 02:17:18;;;;;;;8.73;2.97;;;22.90;48.30;;;;;;6396285;22;20077;-73
2021/01/01 02:20:04;;;;;;;;;;;22.90;48.50;;;;;;6396790;22;20005;-73
2021/01/01 02:23:10;;;;;;;10.27;2.65;;;22.90;48.70;;;;;;6394972;22;19976;-69
2021/01/01 02:26:16;;;;;;;8.38;2.92;;;22.90;49.00;;;;;;6395527;22;20018;-68
2021/01/01 02:28:43;;;;;;;9.45;3.47;;;22.90;49.40;;;;;;6396115;22;20002;-73
2021/01/01 02:31:10;;;;;;;6.70;2.45;;;22.90;49.60;;;;;;6394662;22;19994;-73
2021/01/01 02:33:36;;;;;;;7.38;2.65;;;22.90;49.80;;;;;;6395887;22;20002;-68
2021/01/01 02:36:03;;;;;;;7.10;2.00;;;22.90;49.90;;;;;;6395037;22;19994;-68
2021/01/01 02:38:29;;;;;;;7.60;3.20;;;22.80;50.10;;;;;;6396285;22;20005;-68
2021/01/01 02:40:56;;;;;;;7.75;2.45;;;22.80;50.20;;;;;;6396325;22;20005;-69
2021/01/01 02:43:23;;;;;;;9.98;3.25;;;22.80;50.20;;;;;;6394811;22;20100;-70
2021/01/01 02:45:50;;;;;;;6.68;3.05;;;22.80;50.30;;;;;;6395930;22;20005;-73
2021/01/01 02:48:19;;;;;;;14.57;8.25;;;22.80;50.30;;;;;;6395140;22;20002;-71
2021/01/01 02:50:47;;;;;;;26.02;19.38;;;22.80;50.30;;;;;;6395848;22;20436;-74
2021/01/01 02:53:13;;;;;;;18.98;13.65;;;22.80;50.20;;;;;;6394485;22;20009;-75
2021/01/01 02:55:40;;;;;;;15.43;8.65;;;22.80;50.20;;;;;;6395446;22;19998;-71
2021/01/01 02:58:07;;;;;;;15.95;6.45;;;22.80;50.10;;;;;;6395477;22;20040;-69
2021/01/01 03:00:36;;;;;;;9.45;4.78;;;22.70;49.90;;;;;;6395666;22;19986;-75
2021/01/01 03:03:03;;;;;;;7.53;3.67;;;22.70;49.70;;;;;;6396524;22;20493;-75
2021/01/01 03:05:30;;;;;;;6.53;3.33;;;22.70;49.50;;;;;;6394417;22;19994;-71
2021/01/01 03:07:57;;;;;;;8.20;2.97;;;22.70;49.30;;;;;;6395985;22;20480;-70
2021/01/01 03:10:23;;;;;;;8.55;2.50;;;22.70;49.10;;;;;;6368095;22;20594;-67
2021/01/01 03:12:50;;;;;;;7.00;2.47;;;22.70;48.90;;;;;;6397744;22;20002;-74
2021/01/01 03:15:17;;;;;;;7.93;2.63;;;22.70;48.60;;;;;;6397221;22;20006;-74
2021/01/01 03:17:44;;;;;;;6.85;1.92;;;22.70;48.40;;;;;;6397166;22;20010;-74
2021/01/01 03:20:11;;;;;;;5.25;1.60;;;22.70;48.30;;;;;;6398034;22;19998;-73
2021/01/01 03:22:37;;;;;;;6.68;2.45;;;22.60;48.10;;;;;;6396231;22;20037;-74
2021/01/01 03:25:06;;;;;;;9.73;1.95;;;22.60;47.90;;;;;;6397780;22;20021;-69
2021/01/01 03:27:33;;;;;;;9.70;2.22;;;22.60;47.90;;;;;;6396386;22;20005;-71
2021/01/01 03:29:59;;;;;;;6.78;1.60;;;22.60;47.70;;;;;;6398053;22;20022;-73
2021/01/01 03:32:26;;;;;;;9.45;2.33;;;22.60;47.60;;;;;;6397061;22;20002;-73
2021/01/01 03:34:57;;;;;;;7.07;1.88;;;22.60;47.50;;;;;;6397415;22;20020;-72
2021/01/01 03:37:23;;;;;;;6.03;1.63;;;22.60;47.50;;;;;;6397490;22;20002;-71
2021/01/01 03:39:50;;;;;;;8.15;1.92;;;22.60;47.50;;;;;;6367877;22;20376;-70
2021/01/01 03:42:17;;;;;;;3.47;1.80;;;22.60;47.50;;;;;;6393486;22;20093;-70
2021/01/01 03:44:43;;;;;;;11.95;6.70;;;22.60;47.50;;;;;;6395193;22;19998;-73
2021/01/01 03:47:10;;;;;;;20.90;13.20;;;22.50;47.50;;;;;;6397686;22;20028;-75
2021/01/01 03:49:37;;;;;;;14.70;9.40;;;22.50;47.50;;;;;;6395878;22;20002;-73
2021/01/01 03:52:03;;;;;;;13.63;7.88;;;22.50;47.50;;;;;;6396261;22;20710;-73
2021/01/01 03:54:30;;;;;;;10.15;4.47;;;22.50;47.50;;;;;;6397329;22;20008;-74
2021/01/01 03:56:56;;;;;;;10.32;4.28;;;22.50;47.50;;;;;;6396403;22;20073;-68
2021/01/01 03:59:23;;;;;;;7.47;3.03;;;22.50;47.50;;;;;;6396430;22;19998;-74
2021/01/01 04:01:49;;;;;;;6.22;2.95;;;22.50;47.40;;;;;;6396309;22;20014;-72
2021/01/01 04:04:17;;;;;;;9.43;2.15;;;22.50;47.40;;;;;;6397649;22;20022;-74
2021/01/01 04:06:44;;;;;;;5.45;1.60;;;22.50;47.40;;;;;;6395639;22;20036;-71
2021/01/01 04:09:11;;;;;;;8.13;2.28;;;22.50;47.40;;;;;;6396672;22;20489;-73
2021/01/01 04:11:38;;;;;;;3.88;1.90;;;22.40;47.30;;;;;;6396422;22;20299;-69
2021/01/01 04:14:05;;;;;;;3.15;1.45;;;22.50;47.30;;;;;;6396806;22;19997;-75
2021/01/01 04:16:32;;;;;;;4.43;1.58;;;22.40;47.30;;;;;;6397183;22;19998;-74
2021/01/01 04:18:59;;;;;;;12.85;2.20;;;22.40;47.30;;;;;;6395688;22;20329;-68
2021/01/01 04:21:26;;;;;;;6.30;2.17;;;22.50;48.00;;;;;;6397661;22;20317;-68
2021/01/01 04:23:53;;;;;;;5.28;2.03;;;22.50;47.40;;;;;;6396301;22;20064;-75
2021/01/01 04:26:23;;;;;;;7.93;2.15;;;22.40;47.30;;;;;;6397310;22;20063;-75
2021/01/01 04:28:50;;;;;;;8.27;3.05;;;22.40;47.40;;;;;;6396789;22;20337;-68
2021/01/01 04:31:17;;;;;;;10.10;5.60;;;22.40;47.30;;;;;;6397071;22;19990;-74
2021/01/01 04:33:45;;;;;;;9.45;5.43;;;22.40;47.20;;;;;;6397378;22;19993;-70
2021/01/01 04:36:12;;;;;;;7.50;3.97;;;22.40;47.20;;;;;;6395439;22;19994;-68
2021/01/01 04:38:40;;;;;;;12.68;3.10;;;22.40;47.10;;;;;;6397089;22;20009;-68
2021/01/01 04:41:09;;;;;;;17.25;2.70;;;22.40;46.90;;;;;;6396387;22;19997;-69
2021/01/01 04:43:37;;;;;;;3.90;2.25;;;22.40;46.70;;;;;;6396541;22;20084;-69
2021/01/01 04:46:05;;;;;;;4.75;2.17;;;22.40;46.60;;;;;;6396449;22;19998;-70
2021/01/01 04:48:33;;;;;;;11.15;1.90;;;22.40;46.40;;;;;;6395973;22;20067;-74
2021/01/01 04:51:00;;;;;;;5.93;1.83;;;22.40;46.20;;;;;;6396813;22;19997;-74
2021/01/01 04:53:31;;;;;;;4.13;1.60;;;22.40;46.00;;;;;;6395839;22;20002;-75
2021/01/01 04:55:58;;;;;;;5.95;1.88;;;22.40;45.60;;;;;;6396421;22;20004;-70
2021/01/01 04:58:26;;;;;;;8.55;1.83;;;22.40;45.40;;;;;;6395684;22;20004;-74
2021/01/01 05:00:53;;;;;;;6.97;1.65;;;22.30;45.10;;;;;;6396654;22;20002;-73
2021/01/01 05:03:19;;;;;;;3.55;1.20;;;22.40;45.00;;;;;;6395875;22;20426;-75
2021/01/01 05:05:51;;;;;;;5.85;1.50;;;22.40;44.90;;;;;;6396253;22;20025;-73
2021/01/01 05:08:18;;;;;;;6.10;1.70;;;22.40;44.80;;;;;;6397508;22;20002;-72
2021/01/01 05:10:46;;;;;;;6.07;1.40;;;22.40;44.70;;;;;;6395190;22;19990;-73
2021/01/01 05:13:17;;;;;;;7.65;1.88;;;22.40;44.60;;;;;;6396687;22;20033;-68
2021/01/01 05:15:46;;;;;;;6.55;1.85;;;22.40;44.60;;;;;;6395124;22;20001;-68
2021/01/01 05:18:27;;;;;;;4.72;2.08;;;22.40;44.60;;;;;;6397138;22;19997;-74
2021/01/01 05:21:02;;;;;;;9.48;4.35;;;22.40;44.60;;;;;;6395855;22;20010;-73
2021/01/01 05:23:30;;;;;;;7.05;3.85;;;22.40;44.50;;;;;;6395458;22;20013;-72
2021/01/01 05:26:13;;;;;;;5.53;3.40;;;22.40;44.50;;;;;;6396005;22;20013;-69
2021/01/01 05:28:49;;;;;;;5.97;2.13;;;22.50;44.40;;;;;;6394450;22;20363;-73
2021/01/01 05:31:20;;;;;;;4.30;1.63;;;22.50;44.30;;;;;;6368065;22;20444;-71
2021/01/01 05:33:59;;;;;;;6.32;1.83;;;22.50;44.20;;;;;;6395423;22;19994;-74
2021/01/01 05:36:31;;;;;;;7.63;1.92;;;22.50;44.20;;;;;;6395228;22;20016;-73
2021/01/01 05:38:59;;;;;;;5.68;2.13;;;22.50;44.10;;;;;;6396472;22;19998;-72
2021/01/01 05:41:38;;;;;;;6.03;1.52;;;22.50;43.90;;;;;;6394935;22;20001;-73
2021/01/01 05:44:16;;;;;;;8.35;1.70;;;22.50;43.70;;;;;;6396421;22;20006;-74
2021/01/01 05:46:56;;;;;;;9.50;2.10;;;22.60;43.60;;;;;;6395191;22;20009;-74
2021/01/01 05:49:32;;;;;;;6.75;1.60;;;22.60;43.60;;;;;;6395276;22;19994;-69
2021/01/01 05:52:05;;;;;;;13.30;1.92;;;22.60;43.60;;;;;;6396011;22;20006;-69
2021/01/01 05:54:34;;;;;;;7.38;1.88;;;22.60;43.40;;;;;;6395089;22;20021;-67
2021/01/01 05:57:06;;;;;;;8.48;2.28;;;22.60;43.30;;;;;;6396662;22;20005;-67
2021/01/01 05:59:47;;;;;;;8.55;1.95;;;22.70;43.30;;;;;;6396024;22;20002;-68
2021/01/01 06:02:14;;;;;;;5.70;1.35;;;22.70;43.30;;;;;;6395919;22;20427;-69
2021/01/01 06:04:41;;;;;;;6.95;1.77;;;22.70;43.30;;;;;;6397209;22;20009;-71
2021/01/01 06:07:12;;;;;;;4.13;1.17;;;22.70;43.10;;;;;;6394642;22;20488;-69
2021/01/01 06:09:40;;;;;;;7.55;1.38;;;22.80;43.10;;;;;;6396789;22;20036;-73
2021/01/01 06:12:12;;;;;;;5.15;2.05;;;22.80;43.00;;;;;;6394907;22;19998;-68
2021/01/01 06:14:46;;;;;;;7.60;1.67;;;22.80;43.00;;;;;;6396222;22;20029;-73
2021/01/01 06:17:18;;;;;;;8.20;1.33;;;22.80;42.90;;;;;;6395028;22;20207;-68
2021/01/01 06:19:57;;;;;;;11.23;1.65;;;22.90;42.90;;;;;;6394455;22;20211;-68
2021/01/01 06:22:30;;;;;;;7.90;2.60;;;22.90;42.80;;;;;;6395434;22;20012;-67
2021/01/01 06:25:00;;;;;;;3.13;1.80;;;22.90;42.80;;;;;;6394474;22;19998;-68
2021/01/01 06:27:33;;;;;;;8.55;1.90;;;23.00;42.70;;;;;;6363486;22;20351;-70
2021/01/01 06:30:49;;;;;;;11.75;2.72;;;23.00;42.60;;;;;;6358768;22;20013;-73
2021/01/01 06:33:56;;;;;;;5.20;2.00;;;23.10;42.60;;;;;;6362815;22;20494;-71
2021/01/01 06:36:57;;;;;;;;;;;23.10;42.60;;;;;;6364696;22;20583;-68
2021/01/01 06:40:22;;;;;;;8.80;1.50;;;23.10;42.50;;;;;;6365001;22;20263;-72
2021/01/01 06:43:35;;;;;;;9.60;1.88;;;23.10;42.30;;;;;;6364332;22;20067;-68
2021/01/01 06:46:41;;;;;;;10.82;2.40;;;23.20;42.20;;;;;;6337336;22;20007;-74
2021/01/01 06:49:50;;;;;;;6.22;1.55;;;23.20;42.20;;;;;;6366359;22;20002;-71
2021/01/01 06:52:56;;;;;;;10.35;1.90;;;23.20;42.20;;;;;;6367447;22;20029;-70
2021/01/01 06:56:05;;;;;;;7.10;1.73;;;23.30;42.30;;;;;;6365464;22;20487;-70
2021/01/01 06:59:11;;;;;;;6.60;2.30;;;23.30;42.20;;;;;;6366305;22;20006;-71
2021/01/01 07:02:20;;;;;;;5.00;1.80;;;23.40;42.20;;;;;;6360650;22;20037;-69
2021/01/01 07:05:29;;;;;;;10.23;2.15;;;23.40;42.10;;;;;;6360896;22;20077;-74
2021/01/01 07:08:33;;;;;;;5.78;1.67;;;23.40;42.00;;;;;;6359892;22;20071;-70
2021/01/01 07:11:22;;;;;;;6.35;3.30;;;23.50;42.00;;;;;;6368196;22;20003;-69
2021/01/01 07:14:28;;;;;;;11.27;4.75;;;23.50;42.10;;;;;;6367334;22;20002;-70
2021/01/01 07:17:35;;;;;;;10.13;3.95;;;23.50;42.10;;;;;;6365552;22;20030;-73
2021/01/01 07:20:41;;;;;;;7.15;3.03;;;23.60;42.30;;;;;;6367067;22;20016;-72
2021/01/01 07:23:44;;;;;;;4.68;2.03;;;23.70;42.40;;;;;;6368061;22;20038;-75
2021/01/01 07:26:48;;;;;;;10.18;2.08;;;23.70;42.50;;;;;;6349220;22;20042;-74
2021/01/01 07:29:15;;;;;;;7.78;1.42;;;23.70;42.50;;;;;;6364780;22;20413;-71
2021/01/01 07:31:47;;;;;;;9.50;2.28;;;23.80;42.60;;;;;;6367569;22;20029;-73
2021/01/01 07:34:13;;;;;;;5.53;1.83;;;23.80;42.60;;;;;;6365781;22;20009;-76
2021/01/01 07:36:40;;;;;;;8.50;2.22;;;23.80;42.60;;;;;;6367116;22;20014;-74
2021/01/01 07:39:07;;;;;;;6.03;1.77;;;23.90;42.70;;;;;;6366558;22;20009;-76
2021/01/01 07:41:34;;;;;;;5.38;1.88;;;23.90;42.70;;;;;;6366451;22;20069;-75
2021/01/01 07:44:01;;;;;;;3.85;1.90;;;23.90;42.70;;;;;;6366733;22;20364;-74
2021/01/01 07:46:30;;;;;;;5.63;2.05;;;24.00;42.70;;;;;;6365386;22;20081;-70
2021/01/01 07:48:57;;;;;;;5.30;1.50;;;24.00;42.70;;;;;;6367106;22;19999;-71
2021/01/01 07:51:24;;;;;;;6.47;2.40;;;24.00;42.60;;;;;;6365786;22;19999;-72
2021/01/01 07:54:30;;;;;;;10.32;1.88;;;24.10;42.70;;;;;;6366004;22;20043;-72
2021/01/01 07:57:06;;;;;;;10.35;2.70;;;24.10;42.60;;;;;;6366604;22;20006;-70
2021/01/01 07:59:34;;;;;;;8.07;2.30;;;24.10;42.60;;;;;;6366007;22;19998;-73
2021/01/01 08:02:00;;;;;;;6.53;2.17;;;24.10;42.60;;;;;;6366343;22;20013;-76
2021/01/01 08:05:06;;;;;;;11.95;7.78;;;24.20;42.60;;;;;;6365422;22;20002;-76
2021/01/01 08:07:33;;;;;;;14.57;8.77;;;24.20;42.50;;;;;;6367053;22;20048;-76
2021/01/01 08:10:00;;;;;;;10.52;7.72;;;24.20;42.40;;;;;;6366707;22;20075;-74
2021/01/01 08:12:26;;;;;;;14.93;7.20;;;24.30;42.40;;;;;;6365400;22;19994;-73
2021/01/01 08:14:55;;;;;;;11.07;5.82;;;24.30;42.40;;;;;;6367368;22;19995;-78
2021/01/01 08:18:01;;;;;;;10.90;3.95;;;24.30;42.20;;;;;;6364371;22;20082;-75
2021/01/01 08:20:27;;;;;;;11.35;3.38;;;24.40;42.20;;;;;;6365090;22;19998;-75
2021/01/01 08:22:55;;;;;;;9.85;3.33;;;24.40;42.10;;;;;;6365082;22;20453;-76
2021/01/01 08:25:23;;;;;;;10.23;5.18;;;24.40;42.00;;;;;;6369355;22;20018;-71
2021/01/01 08:27:50;;;;;;;12.15;5.78;;;24.50;41.70;;;;;;6396963;22;20013;-72
2021/01/01 08:30:37;;;;;;;12.25;4.72;;;24.50;41.60;;;;;;6395564;22;19998;-70
2021/01/01 08:33:08;;;;;;;13.32;4.55;;;24.60;41.60;;;;;;6397263;22;20002;-75
2021/01/01 08:35:35;;;;;;;12.00;4.75;;;24.60;41.60;;;;;;6397102;22;20002;-69
2021/01/01 08:38:45;;;;;;;16.55;5.45;;;24.60;41.50;;;;;;6396274;22;19990;-74
2021/01/01 08:42:00;;;;;;;14.38;4.75;;;24.70;41.40;;;;;;6396618;22;19998;-76
2021/01/01 08:45:07;;;;;;;20.85;12.18;;;24.70;41.20;;;;;;6397111;22;20041;-82
2021/01/01 08:47:59;;;;;;;;;;;24.70;41.10;;;;;;6396973;22;20417;-78
2021/01/01 08:50:42;;;;;;;17.20;3.53;;;24.80;41.30;;;;;;6396405;22;19905;-68
2021/01/01 08:53:09;;;;;;;9.45;3.20;;;24.80;41.80;;;;;;6397050;22;20076;-68
2021/01/01 08:55:36;;;;;;;13.70;3.60;;;24.90;41.20;;;;;;6395610;22;20009;-68
2021/01/01 08:58:09;;;;;;;9.30;2.28;;;24.90;41.10;;;;;;6396934;22;20009;-68
2021/01/01 09:01:15;;;;;;;8.63;2.25;;;24.90;40.90;;;;;;6395110;22;20042;-76
2021/01/01 09:04:02;;;;;;;;;;;25.00;40.90;;;;;;6396725;22;20081;-68
2021/01/01 09:06:32;;;;;;;;;;;25.00;40.80;;;;;;6396569;22;19977;-68
2021/01/01 09:09:09;;;;;;;8.27;2.53;;;25.10;40.60;;;;;;6367323;22;19913;-68
2021/01/01 09:11:36;;;;;;;6.55;2.00;;;25.10;40.70;;;;;;6396608;22;20005;-69
2021/01/01 09:14:04;;;;;;;7.45;2.00;;;25.10;40.60;;;;;;6395478;22;19998;-68
2021/01/01 09:16:31;;;;;;;12.88;2.10;;;25.20;40.50;;;;;;6396799;22;19998;-69
2021/01/01 09:19:31;;;;;;;9.82;2.08;;;25.20;40.40;;;;;;6396723;22;20318;-75
2021/01/01 09:22:15;;;;;;;11.07;2.10;;;25.30;40.30;;;;;;6367376;22;20010;-74
2021/01/01 09:24:50;;;;;;;6.60;2.35;;;25.30;40.10;;;;;;6397486;22;20000;-67
2021/01/01 09:27:22;;;;;;;5.95;1.70;;;25.30;40.20;;;;;;6368336;22;20022;-68
2021/01/01 09:30:28;;;;;;;5.00;2.03;;;25.40;40.20;;;;;;6397766;22;20002;-67
2021/01/01 09:33:34;;;;;;;10.35;2.17;;;25.40;39.90;;;;;;6398030;22;20028;-77
2021/01/01 09:36:20;;;;;;;;;;;25.50;40.00;;;;;;6398225;22;19998;-72
2021/01/01 09:39:26;;;;;;;12.82;1.70;;;25.50;39.90;;;;;;6398112;22;19908;-68
2021/01/01 09:42:12;;;;;;;;;;;25.60;39.50;;;;;;6398085;22;20417;-72
2021/01/01 09:45:18;;;;;;;9.00;3.28;;;25.80;39.10;;;;;;6396849;22;19908;-70
2021/01/01 09:48:04;;;;;;;;;;;26.00;38.80;;;;;;6396996;22;19998;-76
2021/01/01 09:51:10;;;;;;;26.13;3.72;;;26.10;38.80;;;;;;6397431;22;19898;-71
2021/01/01 09:53:55;;;;;;;;;;;26.20;38.00;;;;;;6397380;22;19994;-71
2021/01/01 09:57:02;;;;;;;17.23;2.65;;;26.20;38.00;;;;;;6396934;22;19898;-73
2021/01/01 09:59:47;;;;;;;;;;;26.30;38.30;;;;;;6399078;22;20013;-72
2021/01/01 10:02:54;;;;;;;12.68;2.30;;;26.30;38.00;;;;;;6392859;22;19906;-86
2021/01/01 10:06:00;;;;;;;11.82;2.60;;;26.40;37.90;;;;;;6395107;22;20080;-70
2021/01/01 10:08:46;;;;;;;;;;;26.30;37.80;;;;;;6398060;22;20005;-73
2021/01/01 10:11:52;;;;;;;7.95;2.45;;;26.40;38.10;;;;;;6397362;22;19902;-75
2021/01/01 10:14:59;;;;;;;13.93;2.22;;;26.50;38.10;;;;;;6395089;22;20022;-71
2021/01/01 10:18:05;;;;;;;11.95;2.40;;;26.50;38.20;;;;;;6396044;22;20001;-72
2021/01/01 10:20:32;;;;;;;;;;;26.70;37.80;;;;;;6398155;22;20042;-79
2021/01/01 10:22:59;;;;;;;18.55;3.35;;;26.60;37.60;;;;;;6394884;22;19909;-75
2021/01/01 10:26:07;;;;;;;15.93;2.88;;;26.70;37.80;;;;;;6397257;22;20075;-77
2021/01/01 10:28:35;;;;;;;13.00;4.45;;;26.70;37.50;;;;;;6397128;22;20093;-76
2021/01/01 10:31:02;;;;;;;15.88;3.58;;;26.80;37.30;;;;;;6396535;22;20404;-75
2021/01/01 10:34:09;;;;;;;16.75;3.92;;;26.80;37.50;;;;;;6397534;22;20440;-83
2021/01/01 10:37:15;;;;;;;16.98;3.00;;;26.80;37.40;;;;;;6396611;22;20004;-77
2021/01/01 10:40:22;;;;;;;13.77;2.88;;;26.90;37.20;;;;;;6396117;22;20025;-77
2021/01/01 10:42:49;;;;;;;30.33;5.40;;;26.90;37.20;;;;;;6396929;22;20466;-76
2021/01/01 10:45:16;;;;;;;16.02;3.20;;;27.00;36.90;;;;;;6396310;22;20105;-79
2021/01/01 10:47:47;;;;;;;13.23;3.10;;;27.00;37.00;;;;;;6397111;22;20417;-75
2021/01/01 10:50:14;;;;;;;14.30;2.95;;;27.10;36.90;;;;;;6369381;22;20087;-78
2021/01/01 10:53:21;;;;;;;22.90;4.63;;;27.20;36.90;;;;;;6395728;22;20073;-76
2021/01/01 10:55:50;;;;;;;19.67;2.75;;;27.10;36.50;;;;;;6397283;22;19998;-80
2021/01/01 10:58:26;;;;;;;12.23;3.88;;;27.10;36.50;;;;;;6397054;22;19998;-79
2021/01/01 11:01:27;;;;;;;15.63;3.05;;;27.10;36.70;;;;;;6396800;22;20509;-79
2021/01/01 11:03:54;;;;;;;13.80;2.70;;;27.00;37.00;;;;;;6368013;22;20054;-74
2021/01/01 11:07:01;;;;;;;14.40;3.92;;;27.00;37.30;;;;;;6395949;22;20360;-75
2021/01/01 11:10:07;;;;;;;13.20;2.70;;;27.00;37.20;;;;;;6396385;22;20018;-75
2021/01/01 11:13:13;;;;;;;18.17;2.50;;;27.00;37.60;;;;;;6397337;22;20009;-78
2021/01/01 12:24:49;;;;;;;21.85;4.45;;;27.40;39.80;;;;;;6398631;22;20040;-80
2021/01/01 12:27:19;;;;;;;6.95;3.35;;;27.40;39.70;;;;;;6399713;22;20014;-81
2021/01/01 12:29:47;;;;;;;11.60;3.35;;;27.40;39.80;;;;;;6399875;22;20422;-84
2021/01/01 12:32:15;;;;;;;13.30;3.63;;;27.30;39.70;;;;;;6398362;22;20353;-79
2021/01/01 12:35:21;;;;;;;13.88;3.60;;;27.40;39.80;;;;;;6400966;22;20073;-86
2021/01/01 12:38:27;;;;;;;5.68;2.75;;;27.40;39.90;;;;;;6370919;22;20010;-89
2021/01/01 12:41:33;;;;;;;13.68;3.08;;;27.50;39.80;;;;;;6399197;22;20344;-82
2021/01/01 12:44:00;;;;;;;11.50;4.43;;;27.50;39.70;;;;;;6399749;22;20097;-83
2021/01/01 12:46:35;;;;;;;16.17;6.93;;;27.50;39.70;;;;;;6397034;22;19997;-76
2021/01/01 12:49:01;;;;;;;47.53;10.60;;;27.50;39.60;;;;;;6371821;22;20006;-78
2021/01/01 12:51:28;;;;;;;22.35;8.48;;;27.50;40.20;;;;;;6400992;22;20030;-87
2021/01/01 12:53:54;;;;;;;21.85;6.60;;;27.50;39.50;;;;;;6399173;22;20059;-75
2021/01/01 12:56:21;;;;;;;20.90;6.13;;;27.50;39.60;;;;;;6398630;22;19998;-81
2021/01/01 12:58:47;;;;;;;19.17;7.10;;;27.60;39.60;;;;;;6397030;22;20008;-87
2021/01/01 13:01:42;;;;;;;24.63;6.65;;;27.60;39.50;;;;;;6399030;22;20065;-80
2021/01/01 13:04:48;;;;;;;11.88;6.10;;;27.60;39.60;;;;;;6369922;22;20014;-78
2021/01/01 13:07:54;;;;;;;12.90;4.28;;;27.60;39.70;;;;;;6398002;22;20406;-78
2021/01/01 13:10:42;;;;;;;17.33;4.22;;;27.50;39.90;;;;;;6398036;22;20426;-76
2021/01/01 13:13:48;;;;;;;24.88;3.95;;;27.50;40.10;;;;;;6371164;22;20092;-79
2021/01/01 13:16:52;;;;;;;21.98;4.90;;;27.50;40.10;;;;;;6396877;22;19998;-79
2021/01/01 13:19:47;;;;;;;17.30;4.05;;;27.50;40.10;;;;;;6370054;22;20092;-81
2021/01/01 13:22:53;;;;;;;16.02;3.67;;;27.50;40.30;;;;;;6369786;22;20006;-81
2021/01/01 13:25:59;;;;;;;12.82;3.55;;;27.50;40.40;;;;;;6396615;22;20024;-72
2021/01/01 13:28:45;;;;;;;17.33;6.80;;;27.50;40.50;;;;;;6369188;22;20006;-80
2021/01/01 13:31:51;;;;;;;22.50;6.28;;;27.50;40.60;;;;;;6397928;22;20073;-73
2021/01/01 13:34:54;;;;;;;27.67;5.00;;;27.50;40.60;;;;;;6363986;22;20318;-77
2021/01/01 13:37:45;;;;;;;22.02;4.03;;;27.50;40.70;;;;;;6368131;22;20010;-75
2021/01/01 13:40:51;;;;;;;12.85;4.20;;;27.50;40.80;;;;;;6369852;22;20010;-77
2021/01/01 13:43:57;;;;;;;17.92;3.75;;;27.50;40.80;;;;;;6397085;22;20071;-79
2021/01/01 13:47:01;;;;;;;17.67;4.07;;;27.50;40.90;;;;;;6368306;22;20006;-78
2021/01/01 13:50:05;;;;;;;22.67;4.00;;;27.50;40.80;;;;;;6369234;22;20009;-79
2021/01/01 13:53:01;;;;;;;13.00;3.47;;;27.60;40.80;;;;;;6369715;22;19998;-85
2021/01/01 13:56:04;;;;;;;18.38;3.83;;;27.50;40.80;;;;;;6367850;22;20010;-78
2021/01/01 13:58:31;;;;;;;18.65;4.32;;;27.50;40.80;;;;;;6368822;22;20048;-76
2021/01/01 14:01:37;;;;;;;16.80;2.92;;;27.50;40.80;;;;;;6397815;22;20063;-73
2021/01/01 14:04:43;;;;;;;16.55;3.30;;;27.50;40.70;;;;;;6395564;22;20010;-79
2021/01/01 14:07:49;;;;;;;15.43;4.50;;;27.50;40.80;;;;;;6395916;22;20002;-77
2021/01/01 14:10:16;;;;;;;19.08;7.05;;;27.50;40.70;;;;;;6397683;22;19994;-74
2021/01/01 14:13:22;;;;;;;14.20;4.40;;;27.50;40.80;;;;;;6395897;22;20082;-81
2021/01/01 14:16:28;;;;;;;22.08;4.75;;;27.50;40.60;;;;;;6397170;22;20073;-73
2021/01/01 14:18:54;;;;;;;16.90;4.00;;;27.50;40.40;;;;;;6398275;22;20036;-74
2021/01/01 14:21:29;;;;;;;13.18;4.97;;;27.40;40.30;;;;;;6396534;22;20054;-79
2021/01/01 14:24:35;;;;;;;17.70;3.38;;;27.50;40.30;;;;;;6398041;22;20040;-76
2021/01/01 14:27:42;;;;;;;11.07;3.10;;;27.40;40.10;;;;;;6397682;22;20021;-75
2021/01/01 14:30:48;;;;;;;14.85;3.80;;;27.40;39.90;;;;;;6396332;22;20404;-76
2021/01/01 14:33:15;;;;;;;8.43;3.00;;;27.40;40.00;;;;;;6397085;22;19998;-80
2021/01/01 14:36:21;;;;;;;13.55;3.83;;;27.40;40.00;;;;;;6398050;22;20002;-77
2021/01/01 14:38:49;;;;;;;16.15;5.40;;;27.50;40.00;;;;;;6396948;22;20023;-73
2021/01/01 14:41:55;;;;;;;12.65;3.85;;;27.40;40.00;;;;;;6397351;22;20393;-74
2021/01/01 14:44:22;;;;;;;11.80;3.80;;;27.50;40.70;;;;;;6397633;22;20030;-77
2021/01/01 14:47:25;;;;;;;10.07;3.70;;;27.50;39.90;;;;;;6395787;22;20081;-75
2021/01/01 14:50:31;;;;;;;16.30;4.28;;;27.50;39.70;;;;;;6397046;22;20025;-75
2021/01/01 14:53:37;;;;;;;23.80;8.27;;;27.50;39.60;;;;;;6397764;22;20437;-81
2021/01/01 14:56:32;;;;;;;14.95;7.18;;;27.50;39.60;;;;;;6396657;22;20008;-77
2021/01/01 14:59:18;;;;;;;15.57;5.05;;;27.50;39.60;;;;;;6397092;22;20074;-79
2021/01/01 15:01:45;;;;;;;9.98;4.93;;;27.50;39.50;;;;;;6397593;22;19998;-76
2021/01/01 15:04:51;;;;;;;16.65;5.15;;;27.50;39.40;;;;;;6395519;22;20015;-76
2021/01/01 15:07:58;;;;;;;17.17;4.45;;;27.50;39.30;;;;;;6399114;22;20001;-76
2021/01/01 15:11:04;;;;;;;16.83;4.38;;;27.50;39.30;;;;;;6399416;22;20014;-76
2021/01/01 15:14:10;;;;;;;12.02;4.40;;;27.50;39.40;;;;;;6398182;22;19998;-77
2021/01/01 15:17:16;;;;;;;14.93;6.25;;;27.40;39.40;;;;;;6397890;22;19994;-78
2021/01/01 15:20:23;;;;;;;14.10;4.82;;;27.40;39.40;;;;;;6398419;22;20452;-88
2021/01/01 15:22:49;;;;;;;14.95;5.70;;;27.40;39.70;;;;;;6399613;22;20059;-79
2021/01/01 15:25:16;;;;;;;15.82;4.65;;;27.30;39.70;;;;;;6398051;22;20444;-81
2021/01/01 15:27:46;;;;;;;15.13;4.57;;;27.30;39.80;;;;;;6370492;22;19998;-79